Eastham, Massachusetts
Current Conditions -  °F | °C
As of 7:52 PM on Sunday 23 Nov 2014 (Local Time) from KCQX Reporting Station
Clear Clear  
Wind Chill: 45°   Ceiling: Unl
Heat Index: 45°   Visibility: 10mi
Dew Point: 42°   Wind: 3mph
Humidity: 90%   Direction: 210°SSW
Pressure: 30.18"   Gusts: NA
Location:  41.83°N, 69.97°W
Report Text: KCQX 240052Z AUTO 21003KT 10SM CLR 07/06 A3018 RMK AO2 SLP221 T00720056
Loading
Personal Weather Stations






























Interactive Weather Map New forecast layout! Learn more

10-Day Weather Forecast

Advertisements
Track Severe Weather on mobile